createdAt,value
2018-11-29T00:01:52.295Z,5.80
2018-11-29T00:04:22.227Z,5.80
2018-11-29T00:06:55.815Z,5.90
2018-11-29T00:09:25.047Z,5.80
2018-11-29T00:11:56.339Z,5.90
2018-11-29T00:14:28.687Z,5.80
2018-11-29T00:16:57.927Z,5.90
2018-11-29T00:19:30.938Z,5.90
2018-11-29T00:22:05.650Z,5.90
2018-11-29T00:24:35.086Z,5.90
2018-11-29T00:27:05.965Z,5.90
2018-11-29T00:29:37.098Z,6.00
2018-11-29T00:32:08.440Z,5.90
2018-11-29T00:34:38.819Z,5.90
2018-11-29T00:37:08.114Z,5.80
2018-11-29T00:39:39.715Z,5.80
2018-11-29T00:42:12.739Z,5.80
2018-11-29T00:44:46.262Z,5.80
2018-11-29T00:47:16.683Z,5.80
2018-11-29T00:49:48.083Z,5.80
2018-11-29T00:52:17.339Z,5.90
2018-11-29T00:54:46.579Z,5.90
2018-11-29T00:57:18.419Z,5.80
2018-11-29T00:59:49.020Z,5.90
2018-11-29T01:02:19.656Z,5.90
2018-11-29T01:04:49.855Z,5.90
2018-11-29T01:07:22.355Z,5.80
2018-11-29T01:09:54.815Z,5.80
2018-11-29T01:12:24.104Z,5.80
2018-11-29T01:14:56.507Z,5.80
2018-11-29T01:17:27.279Z,5.80
2018-11-29T01:19:58.508Z,5.70
2018-11-29T01:22:27.732Z,5.70
2018-11-29T01:24:56.991Z,5.80
2018-11-29T01:27:26.984Z,5.80
2018-11-29T01:29:58.047Z,5.90
2018-11-29T01:32:27.623Z,5.80
2018-11-29T01:34:56.903Z,5.80
2018-11-29T01:37:26.172Z,5.80
2018-11-29T01:39:55.459Z,5.80
2018-11-29T01:42:26.366Z,5.80
2018-11-29T01:44:56.032Z,5.80
2018-11-29T01:47:28.459Z,5.80
2018-11-29T01:50:02.826Z,5.80
2018-11-29T01:52:34.093Z,5.90
2018-11-29T01:55:08.311Z,5.90
2018-11-29T01:57:38.461Z,5.90
2018-11-29T02:00:14.952Z,6.00
2018-11-29T02:02:46.681Z,5.90
2018-11-29T02:05:16.435Z,5.90
2018-11-29T02:07:46.382Z,5.90
2018-11-29T02:10:22.603Z,6.00
2018-11-29T02:12:51.929Z,5.90
2018-11-29T02:15:21.162Z,5.90
2018-11-29T02:17:51.584Z,6.00
2018-11-29T02:20:21.659Z,6.00
2018-11-29T02:22:52.039Z,6.00
2018-11-29T02:25:21.940Z,6.00
2018-11-29T02:27:55.403Z,6.00
2018-11-29T02:30:24.693Z,6.00
2018-11-29T02:32:56.837Z,5.90
2018-11-29T02:35:28.075Z,5.90
2018-11-29T02:37:59.915Z,6.00
2018-11-29T02:40:32.060Z,6.00
2018-11-29T02:43:01.653Z,6.00
2018-11-29T02:45:34.905Z,6.00
2018-11-29T02:48:04.161Z,6.00
2018-11-29T02:50:33.463Z,6.00
2018-11-29T02:53:05.474Z,6.00
2018-11-29T02:55:36.097Z,6.00
2018-11-29T02:58:05.398Z,5.90
2018-11-29T03:00:34.681Z,5.90
2018-11-29T03:03:06.535Z,5.90
2018-11-29T03:05:37.875Z,6.00
2018-11-29T03:08:10.138Z,6.00
2018-11-29T03:10:42.558Z,6.00
2018-11-29T03:13:14.195Z,6.00
2018-11-29T03:15:44.804Z,6.00
2018-11-29T03:18:14.259Z,6.00
2018-11-29T03:20:45.103Z,5.90
2018-11-29T03:23:14.360Z,6.00
2018-11-29T03:25:44.317Z,5.90
2018-11-29T03:28:14.135Z,5.90
2018-11-29T03:30:43.415Z,6.00
2018-11-29T03:33:14.884Z,6.00
2018-11-29T03:35:44.788Z,5.90
2018-11-29T03:38:14.062Z,5.90
2018-11-29T03:40:44.880Z,6.00
2018-11-29T03:43:14.139Z,6.00
2018-11-29T03:45:45.921Z,6.00
2018-11-29T03:48:15.663Z,6.10
2018-11-29T03:50:45.019Z,6.00
2018-11-29T03:53:17.180Z,6.00
2018-11-29T03:55:48.631Z,6.00
2018-11-29T03:58:20.112Z,5.90
2018-11-29T04:00:49.777Z,6.00
2018-11-29T04:03:19.804Z,6.00
2018-11-29T04:05:49.652Z,5.90
2018-11-29T04:08:19.740Z,5.90
2018-11-29T04:10:49.201Z,5.90
2018-11-29T04:13:19.800Z,5.90
2018-11-29T04:15:49.292Z,5.90
2018-11-29T04:18:18.786Z,6.00
2018-11-29T04:20:50.808Z,6.10
2018-11-29T04:23:20.047Z,6.00
2018-11-29T04:25:49.302Z,6.00
2018-11-29T04:28:19.422Z,6.10
2018-11-29T04:30:50.160Z,6.00
2018-11-29T04:33:21.151Z,5.90
2018-11-29T04:35:51.731Z,5.90
2018-11-29T04:38:23.416Z,5.90
2018-11-29T04:40:55.855Z,5.90
2018-11-29T04:43:25.593Z,5.90
2018-11-29T04:46:08.992Z,5.90
2018-11-29T04:48:40.640Z,5.90
2018-11-29T04:51:11.980Z,5.90
2018-11-29T04:53:41.646Z,5.90
2018-11-29T04:56:12.168Z,5.90
2018-11-29T04:58:42.543Z,5.90
2018-11-29T05:01:13.767Z,5.90
2018-11-29T05:03:48.791Z,5.90
2018-11-29T05:06:19.468Z,5.90
2018-11-29T05:08:49.886Z,6.00
2018-11-29T05:11:19.653Z,6.00
2018-11-29T05:13:49.171Z,6.00
2018-11-29T05:16:18.953Z,5.90
2018-11-29T05:18:49.971Z,5.90
2018-11-29T05:21:19.291Z,5.80
2018-11-29T05:23:49.010Z,5.80
2018-11-29T05:26:18.300Z,5.90
2018-11-29T05:28:48.932Z,5.90
2018-11-29T05:31:18.530Z,5.90
2018-11-29T05:33:50.667Z,5.90
2018-11-29T05:36:20.439Z,5.90
2018-11-29T05:38:49.675Z,5.90
2018-11-29T05:41:18.951Z,5.90
2018-11-29T05:43:48.291Z,6.00
2018-11-29T05:46:19.311Z,6.00
2018-11-29T05:48:48.679Z,6.00
2018-11-29T05:51:17.943Z,6.00
2018-11-29T05:53:47.175Z,6.00
2018-11-29T05:56:17.207Z,6.00
2018-11-29T05:58:48.159Z,6.00
2018-11-29T06:01:21.804Z,6.00
2018-11-29T06:03:51.916Z,6.00
2018-11-29T06:06:23.075Z,6.00
2018-11-29T06:08:52.339Z,6.10
2018-11-29T06:11:21.589Z,6.10
2018-11-29T06:13:50.834Z,6.00
2018-11-29T06:16:20.526Z,6.00
2018-11-29T06:18:50.971Z,5.90
2018-11-29T06:21:21.251Z,6.00
2018-11-29T06:23:50.727Z,5.90
2018-11-29T06:26:19.955Z,5.80
2018-11-29T06:28:49.603Z,5.80
2018-11-29T06:31:21.583Z,5.80
2018-11-29T06:33:51.542Z,5.80
2018-11-29T06:36:21.539Z,6.00
2018-11-29T06:38:50.770Z,6.00
2018-11-29T06:41:23.107Z,6.00
2018-11-29T06:43:54.119Z,6.00
2018-11-29T06:46:23.468Z,6.00
2018-11-29T06:48:55.027Z,6.00
2018-11-29T06:51:26.136Z,5.90
2018-11-29T06:53:59.502Z,5.90
2018-11-29T06:56:30.346Z,5.90
2018-11-29T06:59:02.094Z,5.80
2018-11-29T07:01:32.364Z,5.70
2018-11-29T07:04:02.025Z,5.70
2018-11-29T07:06:32.761Z,5.70
2018-11-29T07:09:03.770Z,5.70
2018-11-29T07:11:34.742Z,5.60
2018-11-29T07:14:04.378Z,5.50
2018-11-29T07:16:34.888Z,5.50
2018-11-29T07:19:06.247Z,5.40
2018-11-29T07:21:54.215Z,5.40
2018-11-29T07:24:24.311Z,5.30
2018-11-29T07:26:54.966Z,5.30
2018-11-29T07:29:26.849Z,5.30
2018-11-29T07:31:56.123Z,5.20
2018-11-29T07:34:25.807Z,5.20
2018-11-29T07:36:56.624Z,5.20
2018-11-29T07:39:26.020Z,5.20
2018-11-29T07:41:56.102Z,5.30
2018-11-29T07:44:25.539Z,5.30
2018-11-29T07:46:54.838Z,5.40
2018-11-29T07:49:25.919Z,5.40
2018-11-29T07:51:55.170Z,5.50
2018-11-29T07:54:24.813Z,5.50
2018-11-29T07:56:55.848Z,5.50
2018-11-29T07:59:30.708Z,5.50
2018-11-29T08:02:01.656Z,5.60
2018-11-29T08:04:30.835Z,5.60
2018-11-29T08:07:02.076Z,5.60
2018-11-29T08:09:31.343Z,5.60
2018-11-29T08:12:02.781Z,5.70
2018-11-29T08:14:32.036Z,5.90
2018-11-29T08:17:02.341Z,5.90
2018-11-29T08:19:33.399Z,5.90
2018-11-29T08:22:03.324Z,5.90
2018-11-29T08:24:35.787Z,5.90
2018-11-29T08:27:05.167Z,6.00
2018-11-29T08:29:35.161Z,6.00
2018-11-29T08:32:03.688Z,6.00
2018-11-29T08:34:33.195Z,6.00
2018-11-29T08:37:04.339Z,6.00
2018-11-29T08:39:34.267Z,6.10
2018-11-29T08:42:04.258Z,6.20
2018-11-29T08:44:33.511Z,6.20
2018-11-29T08:47:02.757Z,6.30
2018-11-29T08:49:32.096Z,6.50
2018-11-29T08:52:01.353Z,6.50
2018-11-29T08:54:32.722Z,6.60
2018-11-29T08:57:02.434Z,6.60
2018-11-29T08:59:31.673Z,6.70
2018-11-29T09:02:01.480Z,6.80
2018-11-29T09:04:31.888Z,6.90
2018-11-29T09:07:03.631Z,6.90
2018-11-29T09:09:34.537Z,6.90
2018-11-29T09:12:03.915Z,6.80
2018-11-29T09:14:35.515Z,6.80
2018-11-29T09:17:07.046Z,6.80
2018-11-29T09:19:38.749Z,6.90
2018-11-29T09:22:11.052Z,6.90
2018-11-29T09:24:41.915Z,7.00
2018-11-29T09:27:11.555Z,7.20
2018-11-29T09:29:45.059Z,7.40
2018-11-29T09:32:14.341Z,7.50
2018-11-29T09:34:44.135Z,7.70
2018-11-29T09:37:13.610Z,7.90
2018-11-29T09:39:43.390Z,8.10
2018-11-29T09:42:14.063Z,8.20
2018-11-29T09:44:43.327Z,8.40
2018-11-29T09:47:12.577Z,8.40
2018-11-29T09:49:41.803Z,8.30
2018-11-29T09:52:13.299Z,8.30
2018-11-29T09:54:44.322Z,8.40
2018-11-29T09:57:13.806Z,8.50
2018-11-29T09:59:45.779Z,8.40
2018-11-29T10:02:16.124Z,8.50
2018-11-29T10:04:47.599Z,8.60
2018-11-29T10:07:18.499Z,8.70
2018-11-29T10:09:47.739Z,9.00
2018-11-29T10:12:17.036Z,9.10
2018-11-29T10:14:46.283Z,9.20
2018-11-29T10:17:15.535Z,9.20
2018-11-29T10:19:45.807Z,9.30
2018-11-29T10:22:16.063Z,9.60
2018-11-29T10:24:47.477Z,9.90
2018-11-29T10:27:18.369Z,10.20
2018-11-29T10:29:48.075Z,10.30
2018-11-29T10:32:17.410Z,10.60
2018-11-29T10:34:47.372Z,10.70
2018-11-29T10:37:16.782Z,10.90
2018-11-29T10:39:46.353Z,11.10
2018-11-29T10:42:16.165Z,10.90
2018-11-29T10:44:45.709Z,10.60
2018-11-29T10:47:15.540Z,10.70
2018-11-29T10:49:46.110Z,10.90
2018-11-29T10:52:16.243Z,10.90
2018-11-29T10:54:45.997Z,11.00
2018-11-29T10:57:16.090Z,11.40
2018-11-29T10:59:45.574Z,11.80
2018-11-29T11:02:21.525Z,12.10
2018-11-29T11:04:51.744Z,12.30
2018-11-29T11:07:22.964Z,12.50
2018-11-29T11:09:52.231Z,12.50
2018-11-29T11:12:22.016Z,12.50
2018-11-29T11:14:52.208Z,12.50
2018-11-29T11:17:21.470Z,12.70
2018-11-29T11:19:50.875Z,13.00
2018-11-29T11:22:20.256Z,13.20
2018-11-29T11:24:49.594Z,13.30
2018-11-29T11:27:19.832Z,13.30
2018-11-29T11:29:50.804Z,13.10
2018-11-29T11:32:20.478Z,13.00
2018-11-29T11:34:50.709Z,13.10
2018-11-29T11:37:20.439Z,13.20
2018-11-29T11:39:50.413Z,13.10
2018-11-29T11:42:21.812Z,12.90
2018-11-29T11:44:53.917Z,12.70
2018-11-29T11:47:24.380Z,12.50
2018-11-29T11:49:53.869Z,12.10
2018-11-29T11:52:28.881Z,11.90
2018-11-29T11:54:58.357Z,11.60
2018-11-29T11:57:28.413Z,11.50
2018-11-29T11:59:59.490Z,11.30
2018-11-29T12:02:30.712Z,11.30
2018-11-29T12:05:03.171Z,11.20
2018-11-29T12:07:33.825Z,11.00
2018-11-29T12:10:07.960Z,11.00
2018-11-29T12:12:39.226Z,10.90
2018-11-29T12:15:12.091Z,10.90
2018-11-29T12:17:42.524Z,11.00
2018-11-29T12:20:19.278Z,11.00
2018-11-29T12:22:48.809Z,10.90
2018-11-29T12:25:20.552Z,10.90
2018-11-29T12:27:51.273Z,10.90
2018-11-29T12:30:27.915Z,10.80
2018-11-29T12:33:02.234Z,10.80
2018-11-29T12:35:32.155Z,10.80
2018-11-29T12:38:02.273Z,10.90
2018-11-29T12:40:31.771Z,10.90
2018-11-29T12:43:01.607Z,11.00
2018-11-29T12:45:31.454Z,11.00
2018-11-29T12:48:05.084Z,11.00
2018-11-29T12:50:37.779Z,11.00
2018-11-29T12:53:09.467Z,11.00
2018-11-29T12:55:40.665Z,11.00
2018-11-29T12:58:09.941Z,11.00
2018-11-29T13:00:41.436Z,11.00
2018-11-29T13:03:17.990Z,11.00
2018-11-29T13:05:47.647Z,10.90
2018-11-29T13:08:18.040Z,10.80
2018-11-29T13:10:47.523Z,10.70
2018-11-29T13:13:16.748Z,10.50
2018-11-29T13:15:48.327Z,10.50
2018-11-29T13:18:19.766Z,10.50
2018-11-29T13:20:51.724Z,10.50
2018-11-29T13:23:21.047Z,10.40
2018-11-29T13:25:51.485Z,10.40
2018-11-29T13:28:21.152Z,10.30
2018-11-29T13:30:50.465Z,10.30
2018-11-29T13:33:19.992Z,10.30
2018-11-29T13:35:50.892Z,10.30
2018-11-29T13:38:20.816Z,10.20
2018-11-29T13:40:51.141Z,10.20
2018-11-29T13:43:20.059Z,10.20
2018-11-29T13:45:49.630Z,10.20
2018-11-29T13:48:19.003Z,10.20
2018-11-29T13:50:48.531Z,10.10
2018-11-29T13:53:19.253Z,10.10
2018-11-29T13:55:48.695Z,10.00
2018-11-29T13:58:18.052Z,9.90
2018-11-29T14:00:48.215Z,9.80
2018-11-29T14:03:18.069Z,9.80
2018-11-29T14:05:48.911Z,9.80
2018-11-29T14:08:18.279Z,9.80
2018-11-29T14:10:47.680Z,9.80
2018-11-29T14:13:17.079Z,9.80
2018-11-29T14:15:47.440Z,9.70
2018-11-29T14:18:17.031Z,9.70
2018-11-29T14:20:46.599Z,9.60
2018-11-29T14:23:15.855Z,9.50
2018-11-29T14:25:45.468Z,9.50
2018-11-29T14:28:15.323Z,9.50
2018-11-29T14:30:44.672Z,9.40
2018-11-29T14:33:13.930Z,9.40
2018-11-29T14:35:45.537Z,9.40
2018-11-29T14:38:15.220Z,9.30
2018-11-29T14:40:44.499Z,9.30
2018-11-29T14:43:15.562Z,9.40
2018-11-29T14:45:45.461Z,9.40
2018-11-29T14:48:14.755Z,9.30
2018-11-29T14:50:46.217Z,9.40
2018-11-29T14:53:15.582Z,9.40
2018-11-29T14:55:45.080Z,9.30
2018-11-29T14:58:19.576Z,9.30
2018-11-29T15:00:45.273Z,9.30
2018-11-29T15:03:20.423Z,9.30
2018-11-29T15:05:49.751Z,9.20
2018-11-29T15:08:20.821Z,9.20
2018-11-29T15:10:50.152Z,9.10
2018-11-29T15:13:19.538Z,9.00
2018-11-29T15:15:48.798Z,9.10
2018-11-29T15:18:18.559Z,9.00
2018-11-29T15:20:49.291Z,8.90
2018-11-29T15:23:20.922Z,8.90
2018-11-29T15:25:50.365Z,8.90
2018-11-29T15:28:19.940Z,8.90
2018-11-29T15:30:49.214Z,8.90
2018-11-29T15:33:18.531Z,8.90
2018-11-29T15:35:48.151Z,8.80
2018-11-29T15:38:19.025Z,8.80
2018-11-29T15:40:48.595Z,8.80
2018-11-29T15:43:17.886Z,8.80
2018-11-29T15:45:50.024Z,8.80
2018-11-29T15:48:19.389Z,8.70
2018-11-29T15:50:49.978Z,8.70
2018-11-29T15:53:20.001Z,8.70
2018-11-29T15:55:51.451Z,8.80
2018-11-29T15:58:22.875Z,8.80
2018-11-29T16:00:56.670Z,8.80
2018-11-29T16:03:27.926Z,8.80
2018-11-29T16:06:00.869Z,8.80
2018-11-29T16:08:30.289Z,8.80
2018-11-29T16:10:59.823Z,8.90
2018-11-29T16:13:29.661Z,8.90
2018-11-29T16:15:58.978Z,8.90
2018-11-29T16:18:30.539Z,8.80
2018-11-29T16:21:00.342Z,8.80
2018-11-29T16:23:30.734Z,8.80
2018-11-29T16:26:00.296Z,8.70
2018-11-29T16:28:31.723Z,8.70
2018-11-29T16:31:01.544Z,8.70
2018-11-29T16:33:34.431Z,8.70
2018-11-29T16:36:04.645Z,8.70
2018-11-29T16:38:34.463Z,8.70
2018-11-29T16:41:06.187Z,8.60
2018-11-29T16:43:37.386Z,8.60
2018-11-29T16:46:06.763Z,8.60
2018-11-29T16:48:38.260Z,8.50
2018-11-29T16:51:07.731Z,8.50
2018-11-29T16:53:42.250Z,8.50
2018-11-29T16:56:14.973Z,8.50
2018-11-29T16:58:44.643Z,8.50
2018-11-29T17:01:14.127Z,8.50
2018-11-29T17:03:45.562Z,8.50
2018-11-29T17:06:16.255Z,8.50
2018-11-29T17:08:45.766Z,8.40
2018-11-29T17:11:15.700Z,8.50
2018-11-29T17:13:45.247Z,8.40
2018-11-29T17:16:14.603Z,8.40
2018-11-29T17:18:47.402Z,8.40
2018-11-29T17:21:16.612Z,8.30
2018-11-29T17:23:46.151Z,8.20
2018-11-29T17:26:15.550Z,8.20
2018-11-29T17:28:45.131Z,8.20
2018-11-29T17:31:15.623Z,8.10
2018-11-29T17:33:47.865Z,8.10
2018-11-29T17:36:17.306Z,8.20
2018-11-29T17:38:53.355Z,8.20
2018-11-29T17:41:23.134Z,8.20
2018-11-29T17:43:52.779Z,8.30
2018-11-29T17:46:22.114Z,8.30
2018-11-29T17:48:53.033Z,8.30
2018-11-29T17:51:24.837Z,8.30
2018-11-29T17:53:55.760Z,8.30
2018-11-29T17:56:27.354Z,8.30
2018-11-29T17:58:59.898Z,8.30
2018-11-29T18:01:29.291Z,8.20
2018-11-29T18:04:01.435Z,8.20
2018-11-29T18:06:34.715Z,8.20
2018-11-29T18:09:07.775Z,8.20
2018-11-29T18:11:37.372Z,8.10
2018-11-29T18:14:09.490Z,8.10
2018-11-29T18:16:38.956Z,8.10
2018-11-29T18:19:13.173Z,8.10
2018-11-29T18:21:38.879Z,8.00
2018-11-29T18:24:09.387Z,8.10
2018-11-29T18:26:41.316Z,8.00
2018-11-29T18:29:12.086Z,8.00
2018-11-29T18:31:43.838Z,8.00
2018-11-29T18:34:14.339Z,8.10
2018-11-29T18:36:46.902Z,8.00
2018-11-29T18:39:16.806Z,8.00
2018-11-29T18:41:47.904Z,8.00
2018-11-29T18:44:18.417Z,8.00
2018-11-29T18:46:52.897Z,8.00
2018-11-29T18:49:22.309Z,8.00
2018-11-29T18:51:53.366Z,7.90
2018-11-29T18:54:24.039Z,7.90
2018-11-29T18:56:55.483Z,7.80
2018-11-29T18:59:26.447Z,7.90
2018-11-29T19:01:55.853Z,7.90
2018-11-29T19:04:25.435Z,7.90
2018-11-29T19:06:54.838Z,7.80
2018-11-29T19:09:24.348Z,7.80
2018-11-29T19:11:55.833Z,7.80
2018-11-29T19:14:25.448Z,7.80
2018-11-29T19:16:59.425Z,7.80
2018-11-29T19:19:30.572Z,7.80
2018-11-29T19:21:59.860Z,7.80
2018-11-29T19:24:29.219Z,7.70
2018-11-29T19:26:59.713Z,7.70
2018-11-29T19:29:33.166Z,7.60
2018-11-29T19:32:04.886Z,7.60
2018-11-29T19:34:34.814Z,7.60
2018-11-29T19:37:05.133Z,7.50
2018-11-29T19:39:40.147Z,7.40
2018-11-29T19:42:14.358Z,7.40
2018-11-29T19:44:46.664Z,7.40
2018-11-29T19:47:16.704Z,7.40
2018-11-29T19:49:46.349Z,7.40
2018-11-29T19:52:15.750Z,7.40
2018-11-29T19:54:45.271Z,7.40
2018-11-29T19:57:24.027Z,7.40
2018-11-29T19:59:57.398Z,7.30
2018-11-29T20:02:28.352Z,7.20
2018-11-29T20:04:59.373Z,7.20
2018-11-29T20:07:32.404Z,7.10
2018-11-29T20:10:01.946Z,7.10
2018-11-29T20:12:31.271Z,7.10
2018-11-29T20:15:03.536Z,7.10
2018-11-29T20:17:34.759Z,7.10
2018-11-29T20:20:07.424Z,7.00
2018-11-29T20:22:37.119Z,7.00
2018-11-29T20:25:15.663Z,7.00
2018-11-29T20:27:48.818Z,7.00
2018-11-29T20:30:25.977Z,7.00
2018-11-29T20:32:57.826Z,7.00
2018-11-29T20:35:27.590Z,7.00
2018-11-29T20:37:58.386Z,7.00
2018-11-29T20:40:35.850Z,6.90
2018-11-29T20:43:10.610Z,6.90
2018-11-29T20:45:51.018Z,6.80
2018-11-29T20:48:25.007Z,6.80
2018-11-29T20:51:00.342Z,6.80
2018-11-29T20:53:34.123Z,6.80
2018-11-29T20:56:08.167Z,6.80
2018-11-29T20:58:40.682Z,6.80
2018-11-29T21:01:10.807Z,6.70
2018-11-29T21:03:40.238Z,6.70
2018-11-29T21:06:11.681Z,6.80
2018-11-29T21:08:41.394Z,6.70
2018-11-29T21:11:10.919Z,6.70
2018-11-29T21:13:40.486Z,6.70
2018-11-29T21:16:10.300Z,6.70
2018-11-29T21:18:41.027Z,6.70
2018-11-29T21:21:13.463Z,6.70
2018-11-29T21:23:42.948Z,6.60
2018-11-29T21:26:12.583Z,6.60
2018-11-29T21:28:44.607Z,6.70
2018-11-29T21:31:13.926Z,6.70
2018-11-29T21:33:45.483Z,6.60
2018-11-29T21:36:16.779Z,6.60
2018-11-29T21:38:46.107Z,6.60
2018-11-29T21:41:15.535Z,6.60
2018-11-29T21:43:49.646Z,6.60
2018-11-29T21:46:19.898Z,6.60
2018-11-29T21:48:49.437Z,6.60
2018-11-29T21:51:19.064Z,6.60
2018-11-29T21:53:50.832Z,6.60
2018-11-29T21:56:20.150Z,6.60
2018-11-29T21:58:49.747Z,6.60
2018-11-29T22:01:20.167Z,6.50
2018-11-29T22:03:50.491Z,6.50
2018-11-29T22:06:22.237Z,6.50
2018-11-29T22:08:54.913Z,6.50
2018-11-29T22:11:26.907Z,6.40
2018-11-29T22:13:57.238Z,6.40
2018-11-29T22:16:33.248Z,6.40
2018-11-29T22:19:02.591Z,6.40
2018-11-29T22:21:31.861Z,6.40
2018-11-29T22:24:01.456Z,6.30
2018-11-29T22:26:40.499Z,6.30
2018-11-29T22:29:09.883Z,6.30
2018-11-29T22:31:40.680Z,6.30
2018-11-29T22:34:10.023Z,6.30
2018-11-29T22:36:40.535Z,6.20
2018-11-29T22:39:10.856Z,6.20
2018-11-29T22:41:47.225Z,6.20
2018-11-29T22:44:16.982Z,6.20
2018-11-29T22:46:46.950Z,6.20
2018-11-29T22:49:18.247Z,6.20
2018-11-29T22:51:48.163Z,6.10
2018-11-29T22:54:22.699Z,6.10
2018-11-29T22:56:52.200Z,6.10
2018-11-29T22:59:25.214Z,6.00
2018-11-29T23:01:56.067Z,6.00
2018-11-29T23:04:26.671Z,6.00
2018-11-29T23:06:58.586Z,6.00
2018-11-29T23:09:28.171Z,6.00
2018-11-29T23:11:58.732Z,6.00
2018-11-29T23:14:27.990Z,6.00
2018-11-29T23:16:59.085Z,6.00
2018-11-29T23:19:28.311Z,5.90
2018-11-29T23:21:59.739Z,5.90
2018-11-29T23:24:31.212Z,5.90
2018-11-29T23:27:00.465Z,6.00
2018-11-29T23:29:29.986Z,6.00
2018-11-29T23:31:59.256Z,6.10
2018-11-29T23:34:30.995Z,6.00
2018-11-29T23:37:00.406Z,6.10
2018-11-29T23:39:29.663Z,6.10
2018-11-29T23:42:00.226Z,6.10
2018-11-29T23:44:29.933Z,6.10
2018-11-29T23:46:59.985Z,6.10
2018-11-29T23:49:29.217Z,6.10
2018-11-29T23:52:01.176Z,6.10
2018-11-29T23:54:31.992Z,6.10
2018-11-29T23:57:01.799Z,6.10
2018-11-29T23:59:32.330Z,6.10
